sensor_id;sensor_type;location;lat;lon;timestamp;pressure;altitude;pressure_sealevel;temperature;humidity
62458;BME280;48509;52.122;5.250;2023-02-18T00:02:37;102158.0;;;12.16;100.0
62458;BME280;48509;52.122;5.250;2023-02-18T00:04:14;102159.0;;;12.21;100.0
62458;BME280;48509;52.122;5.250;2023-02-18T00:05:51;102156.0;;;12.3;100.0
62458;BME280;48509;52.122;5.250;2023-02-18T00:09:09;102159.0;;;12.38;100.0
62458;BME280;48509;52.122;5.250;2023-02-18T00:10:46;102156.0;;;12.3;100.0
62458;BME280;48509;52.122;5.250;2023-02-18T00:12:23;102157.0;;;12.29;100.0
62458;BME280;48509;52.122;5.250;2023-02-18T00:15:38;102157.0;;;12.3;100.0
62458;BME280;48509;52.122;5.250;2023-02-18T00:17:15;102159.0;;;12.29;100.0
62458;BME280;48509;52.122;5.250;2023-02-18T00:18:54;102155.0;;;12.23;100.0
62458;BME280;48509;52.122;5.250;2023-02-18T00:20:32;102160.0;;;12.21;100.0
62458;BME280;48509;52.122;5.250;2023-02-18T00:23:45;102153.0;;;12.16;100.0
62458;BME280;48509;52.122;5.250;2023-02-18T00:25:22;102144.0;;;12.16;100.0
62458;BME280;48509;52.122;5.250;2023-02-18T00:26:58;102151.0;;;11.99;100.0
62458;BME280;48509;52.122;5.250;2023-02-18T00:30:12;102155.0;;;11.88;100.0
62458;BME280;48509;52.122;5.250;2023-02-18T00:31:48;102148.0;;;11.99;100.0
62458;BME280;48509;52.122;5.250;2023-02-18T00:33:25;102146.0;;;12.09;100.0
62458;BME280;48509;52.122;5.250;2023-02-18T00:35:02;102136.0;;;11.99;100.0
62458;BME280;48509;52.122;5.250;2023-02-18T00:38:16;102130.0;;;12.02;100.0
62458;BME280;48509;52.122;5.250;2023-02-18T00:39:52;102140.0;;;11.98;100.0
62458;BME280;48509;52.122;5.250;2023-02-18T00:41:30;102139.0;;;11.94;100.0
62458;BME280;48509;52.122;5.250;2023-02-18T00:44:43;102137.0;;;11.75;100.0
62458;BME280;48509;52.122;5.250;2023-02-18T00:46:20;102142.0;;;11.82;100.0
62458;BME280;48509;52.122;5.250;2023-02-18T00:47:57;102144.0;;;11.89;100.0
62458;BME280;48509;52.122;5.250;2023-02-18T00:51:11;102140.0;;;11.88;100.0
62458;BME280;48509;52.122;5.250;2023-02-18T00:52:47;102136.0;;;11.95;100.0
62458;BME280;48509;52.122;5.250;2023-02-18T00:54:23;102131.0;;;11.98;100.0
62458;BME280;48509;52.122;5.250;2023-02-18T00:56:00;102128.0;;;11.88;100.0
62458;BME280;48509;52.122;5.250;2023-02-18T00:59:12;102130.0;;;11.78;100.0
62458;BME280;48509;52.122;5.250;2023-02-18T01:00:49;102126.0;;;11.48;100.0
62458;BME280;48509;52.122;5.250;2023-02-18T01:02:26;102130.0;;;11.52;100.0
62458;BME280;48509;52.122;5.250;2023-02-18T01:05:40;102127.0;;;11.58;100.0
62458;BME280;48509;52.122;5.250;2023-02-18T01:07:17;102120.0;;;11.71;100.0
62458;BME280;48509;52.122;5.250;2023-02-18T01:08:54;102122.0;;;11.59;100.0
62458;BME280;48509;52.122;5.250;2023-02-18T01:10:31;102124.0;;;11.44;100.0
62458;BME280;48509;52.122;5.250;2023-02-18T01:13:45;102121.0;;;11.5;100.0
62458;BME280;48509;52.122;5.250;2023-02-18T01:15:22;102121.0;;;11.42;100.0
62458;BME280;48509;52.122;5.250;2023-02-18T01:16:59;102125.0;;;11.5;100.0
62458;BME280;48509;52.122;5.250;2023-02-18T01:20:13;102125.0;;;11.27;100.0
62458;BME280;48509;52.122;5.250;2023-02-18T01:21:50;102125.0;;;11.26;100.0
62458;BME280;48509;52.122;5.250;2023-02-18T01:23:27;102130.0;;;11.17;100.0
62458;BME280;48509;52.122;5.250;2023-02-18T01:26:41;102125.0;;;11.24;100.0
62458;BME280;48509;52.122;5.250;2023-02-18T01:28:18;102125.0;;;11.36;100.0
62458;BME280;48509;52.122;5.250;2023-02-18T01:29:54;102120.0;;;11.41;100.0
62458;BME280;48509;52.122;5.250;2023-02-18T01:31:30;102113.0;;;11.42;100.0
62458;BME280;48509;52.122;5.250;2023-02-18T01:34:43;102110.0;;;11.13;100.0
62458;BME280;48509;52.122;5.250;2023-02-18T01:36:19;102109.0;;;11.04;100.0
62458;BME280;48509;52.122;5.250;2023-02-18T01:37:56;102103.0;;;11.11;100.0
62458;BME280;48509;52.122;5.250;2023-02-18T01:41:09;102094.0;;;11.07;100.0
62458;BME280;48509;52.122;5.250;2023-02-18T01:42:46;102089.0;;;11.24;100.0
62458;BME280;48509;52.122;5.250;2023-02-18T01:44:24;102091.0;;;11.25;100.0
62458;BME280;48509;52.122;5.250;2023-02-18T01:47:50;102090.0;;;11.19;100.0
62458;BME280;48509;52.122;5.250;2023-02-18T01:49:30;102091.0;;;11.15;100.0
62458;BME280;48509;52.122;5.250;2023-02-18T01:51:10;102094.0;;;11.0;100.0
62458;BME280;48509;52.122;5.250;2023-02-18T01:52:49;102089.0;;;11.06;100.0
62458;BME280;48509;52.122;5.250;2023-02-18T01:56:10;102092.0;;;11.14;100.0
62458;BME280;48509;52.122;5.250;2023-02-18T01:57:49;102085.0;;;11.28;100.0
62458;BME280;48509;52.122;5.250;2023-02-18T01:59:28;102087.0;;;11.24;100.0
62458;BME280;48509;52.122;5.250;2023-02-18T02:01:08;102087.0;;;11.34;100.0
62458;BME280;48509;52.122;5.250;2023-02-18T02:04:22;102081.0;;;11.29;100.0
62458;BME280;48509;52.122;5.250;2023-02-18T02:06:00;102078.0;;;11.24;100.0
62458;BME280;48509;52.122;5.250;2023-02-18T02:07:37;102063.0;;;11.21;100.0
62458;BME280;48509;52.122;5.250;2023-02-18T02:09:18;102066.0;;;11.12;100.0
62458;BME280;48509;52.122;5.250;2023-02-18T02:13:00;102065.0;;;11.23;100.0
62458;BME280;48509;52.122;5.250;2023-02-18T02:14:53;102060.0;;;11.36;100.0
62458;BME280;48509;52.122;5.250;2023-02-18T02:17:02;102059.0;;;11.15;100.0
62458;BME280;48509;52.122;5.250;2023-02-18T02:18:50;102055.0;;;11.18;100.0
62458;BME280;48509;52.122;5.250;2023-02-18T02:21:12;102051.0;;;11.39;100.0
62458;BME280;48509;52.122;5.250;2023-02-18T02:24:53;102032.0;;;11.31;100.0
62458;BME280;48509;52.122;5.250;2023-02-18T02:27:22;102023.0;;;11.35;100.0
62458;BME280;48509;52.122;5.250;2023-02-18T02:29:16;102013.0;;;11.37;100.0
62458;BME280;48509;52.122;5.250;2023-02-18T02:31:25;102009.0;;;11.41;100.0
62458;BME280;48509;52.122;5.250;2023-02-18T02:35:25;102002.0;;;11.49;100.0
62458;BME280;48509;52.122;5.250;2023-02-18T02:37:11;101988.0;;;11.27;100.0
62458;BME280;48509;52.122;5.250;2023-02-18T02:38:55;101982.0;;;11.4;100.0
62458;BME280;48509;52.122;5.250;2023-02-18T02:40:37;101969.0;;;11.36;100.0
62458;BME280;48509;52.122;5.250;2023-02-18T02:44:13;101961.0;;;11.39;100.0
62458;BME280;48509;52.122;5.250;2023-02-18T02:45:58;101964.0;;;11.45;100.0
62458;BME280;48509;52.122;5.250;2023-02-18T02:47:42;101960.0;;;11.33;100.0
62458;BME280;48509;52.122;5.250;2023-02-18T02:49:36;101952.0;;;11.25;100.0
62458;BME280;48509;52.122;5.250;2023-02-18T02:51:18;101950.0;;;11.2;100.0
62458;BME280;48509;52.122;5.250;2023-02-18T02:54:41;101949.0;;;11.29;100.0
62458;BME280;48509;52.122;5.250;2023-02-18T02:56:19;101950.0;;;11.37;100.0
62458;BME280;48509;52.122;5.250;2023-02-18T02:57:57;101941.0;;;11.22;100.0
62458;BME280;48509;52.122;5.250;2023-02-18T02:59:34;101940.0;;;11.26;100.0
62458;BME280;48509;52.122;5.250;2023-02-18T03:03:19;101938.0;;;11.34;100.0
62458;BME280;48509;52.122;5.250;2023-02-18T03:05:23;101934.0;;;11.35;100.0
62458;BME280;48509;52.122;5.250;2023-02-18T03:07:14;101928.0;;;11.37;100.0
62458;BME280;48509;52.122;5.250;2023-02-18T03:09:15;101923.0;;;11.39;100.0
62458;BME280;48509;52.122;5.250;2023-02-18T03:11:02;101924.0;;;11.35;100.0
62458;BME280;48509;52.122;5.250;2023-02-18T03:12:46;101924.0;;;11.46;100.0
62458;BME280;48509;52.122;5.250;2023-02-18T03:14:28;101924.0;;;11.55;100.0
62458;BME280;48509;52.122;5.250;2023-02-18T03:16:13;101926.0;;;11.57;100.0
62458;BME280;48509;52.122;5.250;2023-02-18T03:19:39;101922.0;;;11.36;100.0
62458;BME280;48509;52.122;5.250;2023-02-18T03:21:24;101923.0;;;11.44;100.0
62458;BME280;48509;52.122;5.250;2023-02-18T03:23:07;101917.0;;;11.54;100.0
62458;BME280;48509;52.122;5.250;2023-02-18T03:24:53;101915.0;;;11.58;100.0
62458;BME280;48509;52.122;5.250;2023-02-18T03:26:35;101916.0;;;11.64;100.0
62458;BME280;48509;52.122;5.250;2023-02-18T03:29:58;101902.0;;;11.58;100.0
62458;BME280;48509;52.122;5.250;2023-02-18T03:31:38;101902.0;;;11.48;100.0
62458;BME280;48509;52.122;5.250;2023-02-18T03:33:23;101895.0;;;11.48;100.0
62458;BME280;48509;52.122;5.250;2023-02-18T03:35:15;101882.0;;;11.43;100.0
62458;BME280;48509;52.122;5.250;2023-02-18T03:38:33;101885.0;;;11.56;100.0
62458;BME280;48509;52.122;5.250;2023-02-18T03:40:12;101876.0;;;11.63;100.0
62458;BME280;48509;52.122;5.250;2023-02-18T03:41:50;101870.0;;;11.58;100.0
62458;BME280;48509;52.122;5.250;2023-02-18T03:43:27;101873.0;;;11.57;100.0
62458;BME280;48509;52.122;5.250;2023-02-18T03:46:43;101860.0;;;11.59;100.0
62458;BME280;48509;52.122;5.250;2023-02-18T03:48:20;101855.0;;;11.59;100.0
62458;BME280;48509;52.122;5.250;2023-02-18T03:49:56;101855.0;;;11.67;100.0
62458;BME280;48509;52.122;5.250;2023-02-18T03:53:08;101856.0;;;11.55;100.0
62458;BME280;48509;52.122;5.250;2023-02-18T03:54:44;101850.0;;;11.67;100.0
62458;BME280;48509;52.122;5.250;2023-02-18T03:56:21;101841.0;;;11.73;100.0
62458;BME280;48509;52.122;5.250;2023-02-18T03:57:57;101843.0;;;11.61;100.0
62458;BME280;48509;52.122;5.250;2023-02-18T04:01:10;101836.0;;;11.62;100.0
62458;BME280;48509;52.122;5.250;2023-02-18T04:02:46;101834.0;;;11.45;100.0
62458;BME280;48509;52.122;5.250;2023-02-18T04:04:22;101828.0;;;11.59;100.0
62458;BME280;48509;52.122;5.250;2023-02-18T04:07:35;101832.0;;;11.56;100.0
62458;BME280;48509;52.122;5.250;2023-02-18T04:09:12;101832.0;;;11.66;100.0
62458;BME280;48509;52.122;5.250;2023-02-18T04:10:49;101819.0;;;11.65;100.0
62458;BME280;48509;52.122;5.250;2023-02-18T04:14:02;101824.0;;;11.75;100.0
62458;BME280;48509;52.122;5.250;2023-02-18T04:15:39;101824.0;;;11.86;100.0
62458;BME280;48509;52.122;5.250;2023-02-18T04:17:15;101822.0;;;11.87;100.0
62458;BME280;48509;52.122;5.250;2023-02-18T04:18:51;101817.0;;;11.77;100.0
62458;BME280;48509;52.122;5.250;2023-02-18T04:22:04;101817.0;;;11.84;100.0
62458;BME280;48509;52.122;5.250;2023-02-18T04:23:40;101809.0;;;11.62;100.0
62458;BME280;48509;52.122;5.250;2023-02-18T04:25:17;101803.0;;;11.56;100.0
62458;BME280;48509;52.122;5.250;2023-02-18T04:28:30;101802.0;;;11.5;100.0
62458;BME280;48509;52.122;5.250;2023-02-18T04:30:07;101810.0;;;11.53;100.0
62458;BME280;48509;52.122;5.250;2023-02-18T04:31:43;101797.0;;;11.47;100.0
62458;BME280;48509;52.122;5.250;2023-02-18T04:34:55;101802.0;;;11.43;100.0
62458;BME280;48509;52.122;5.250;2023-02-18T04:36:31;101802.0;;;11.48;100.0
62458;BME280;48509;52.122;5.250;2023-02-18T04:38:08;101805.0;;;11.43;100.0
62458;BME280;48509;52.122;5.250;2023-02-18T04:39:46;101795.0;;;11.48;100.0
62458;BME280;48509;52.122;5.250;2023-02-18T04:42:58;101795.0;;;11.49;100.0
62458;BME280;48509;52.122;5.250;2023-02-18T04:44:36;101793.0;;;11.5;100.0
62458;BME280;48509;52.122;5.250;2023-02-18T04:46:12;101788.0;;;11.46;100.0
62458;BME280;48509;52.122;5.250;2023-02-18T04:49:24;101775.0;;;11.45;100.0
62458;BME280;48509;52.122;5.250;2023-02-18T04:51:01;101772.0;;;11.43;100.0
62458;BME280;48509;52.122;5.250;2023-02-18T04:52:39;101777.0;;;11.38;100.0
62458;BME280;48509;52.122;5.250;2023-02-18T04:55:52;101767.0;;;11.48;100.0
62458;BME280;48509;52.122;5.250;2023-02-18T04:57:29;101764.0;;;11.48;100.0
62458;BME280;48509;52.122;5.250;2023-02-18T04:59:05;101757.0;;;11.54;100.0
62458;BME280;48509;52.122;5.250;2023-02-18T05:00:41;101755.0;;;11.47;100.0
62458;BME280;48509;52.122;5.250;2023-02-18T05:03:53;101756.0;;;11.49;100.0
62458;BME280;48509;52.122;5.250;2023-02-18T05:05:30;101764.0;;;11.49;100.0
62458;BME280;48509;52.122;5.250;2023-02-18T05:07:06;101765.0;;;11.53;100.0
62458;BME280;48509;52.122;5.250;2023-02-18T05:10:18;101764.0;;;11.47;100.0
62458;BME280;48509;52.122;5.250;2023-02-18T05:11:54;101765.0;;;11.5;100.0
62458;BME280;48509;52.122;5.250;2023-02-18T05:13:30;101768.0;;;11.47;100.0
62458;BME280;48509;52.122;5.250;2023-02-18T05:16:44;101758.0;;;11.42;100.0
62458;BME280;48509;52.122;5.250;2023-02-18T05:18:21;101764.0;;;11.38;100.0
62458;BME280;48509;52.122;5.250;2023-02-18T05:19:57;101757.0;;;11.46;100.0
62458;BME280;48509;52.122;5.250;2023-02-18T05:21:33;101770.0;;;11.53;100.0
62458;BME280;48509;52.122;5.250;2023-02-18T05:24:45;101764.0;;;11.42;100.0
62458;BME280;48509;52.122;5.250;2023-02-18T05:26:21;101764.0;;;11.41;100.0
62458;BME280;48509;52.122;5.250;2023-02-18T05:27:58;101742.0;;;11.44;100.0
62458;BME280;48509;52.122;5.250;2023-02-18T05:31:10;101747.0;;;11.51;100.0
62458;BME280;48509;52.122;5.250;2023-02-18T05:32:47;101740.0;;;11.45;100.0
62458;BME280;48509;52.122;5.250;2023-02-18T05:34:23;101750.0;;;11.55;100.0
62458;BME280;48509;52.122;5.250;2023-02-18T05:37:35;101738.0;;;11.42;100.0
62458;BME280;48509;52.122;5.250;2023-02-18T05:39:11;101736.0;;;11.5;100.0
62458;BME280;48509;52.122;5.250;2023-02-18T05:40:47;101740.0;;;11.43;100.0
62458;BME280;48509;52.122;5.250;2023-02-18T05:44:32;101728.0;;;11.59;100.0
62458;BME280;48509;52.122;5.250;2023-02-18T05:46:09;101730.0;;;11.58;100.0
62458;BME280;48509;52.122;5.250;2023-02-18T05:47:45;101728.0;;;11.52;100.0
62458;BME280;48509;52.122;5.250;2023-02-18T05:49:21;101727.0;;;11.65;100.0
62458;BME280;48509;52.122;5.250;2023-02-18T05:50:57;101731.0;;;11.55;100.0
62458;BME280;48509;52.122;5.250;2023-02-18T05:54:10;101730.0;;;11.54;100.0
62458;BME280;48509;52.122;5.250;2023-02-18T05:55:46;101725.0;;;11.47;100.0
62458;BME280;48509;52.122;5.250;2023-02-18T05:57:22;101721.0;;;11.55;100.0
62458;BME280;48509;52.122;5.250;2023-02-18T06:00:36;101714.0;;;11.59;100.0
62458;BME280;48509;52.122;5.250;2023-02-18T06:02:12;101710.0;;;11.53;100.0
62458;BME280;48509;52.122;5.250;2023-02-18T06:03:48;101714.0;;;11.4;100.0
62458;BME280;48509;52.122;5.250;2023-02-18T06:07:00;101715.0;;;11.64;100.0
62458;BME280;48509;52.122;5.250;2023-02-18T06:08:36;101715.0;;;11.67;100.0
62458;BME280;48509;52.122;5.250;2023-02-18T06:10:12;101727.0;;;11.44;100.0
62458;BME280;48509;52.122;5.250;2023-02-18T06:11:48;101728.0;;;11.38;100.0
62458;BME280;48509;52.122;5.250;2023-02-18T06:15:01;101721.0;;;11.49;100.0
62458;BME280;48509;52.122;5.250;2023-02-18T06:16:37;101728.0;;;11.57;100.0
62458;BME280;48509;52.122;5.250;2023-02-18T06:18:13;101718.0;;;11.49;100.0
62458;BME280;48509;52.122;5.250;2023-02-18T06:21:25;101722.0;;;11.54;100.0
62458;BME280;48509;52.122;5.250;2023-02-18T06:23:01;101719.0;;;11.64;100.0
62458;BME280;48509;52.122;5.250;2023-02-18T06:24:37;101723.0;;;11.62;100.0
62458;BME280;48509;52.122;5.250;2023-02-18T06:27:50;101726.0;;;11.49;100.0
62458;BME280;48509;52.122;5.250;2023-02-18T06:29:29;101724.0;;;11.54;100.0
62458;BME280;48509;52.122;5.250;2023-02-18T06:31:05;101720.0;;;11.54;100.0
62458;BME280;48509;52.122;5.250;2023-02-18T06:32:42;101722.0;;;11.58;100.0
62458;BME280;48509;52.122;5.250;2023-02-18T06:35:56;101719.0;;;11.48;100.0
62458;BME280;48509;52.122;5.250;2023-02-18T06:37:33;101725.0;;;11.59;100.0
62458;BME280;48509;52.122;5.250;2023-02-18T06:39:08;101717.0;;;11.71;100.0
62458;BME280;48509;52.122;5.250;2023-02-18T06:42:22;101717.0;;;11.59;100.0
62458;BME280;48509;52.122;5.250;2023-02-18T06:43:58;101722.0;;;11.4;100.0
62458;BME280;48509;52.122;5.250;2023-02-18T06:45:37;101724.0;;;11.56;100.0
62458;BME280;48509;52.122;5.250;2023-02-18T06:48:50;101730.0;;;11.64;100.0
62458;BME280;48509;52.122;5.250;2023-02-18T06:50:27;101731.0;;;11.56;100.0
62458;BME280;48509;52.122;5.250;2023-02-18T06:52:03;101735.0;;;11.64;100.0
62458;BME280;48509;52.122;5.250;2023-02-18T06:53:40;101736.0;;;11.52;100.0
62458;BME280;48509;52.122;5.250;2023-02-18T06:56:52;101727.0;;;11.54;100.0
62458;BME280;48509;52.122;5.250;2023-02-18T06:58:28;101733.0;;;11.59;100.0
62458;BME280;48509;52.122;5.250;2023-02-18T07:00:06;101728.0;;;11.59;100.0
62458;BME280;48509;52.122;5.250;2023-02-18T07:03:19;101725.0;;;11.58;100.0
62458;BME280;48509;52.122;5.250;2023-02-18T07:04:55;101721.0;;;11.59;100.0
62458;BME280;48509;52.122;5.250;2023-02-18T07:06:31;101722.0;;;11.41;100.0
62458;BME280;48509;52.122;5.250;2023-02-18T07:09:44;101723.0;;;11.46;100.0
62458;BME280;48509;52.122;5.250;2023-02-18T07:11:21;101717.0;;;11.45;100.0
62458;BME280;48509;52.122;5.250;2023-02-18T07:12:57;101727.0;;;11.62;100.0
62458;BME280;48509;52.122;5.250;2023-02-18T07:14:34;101724.0;;;11.41;100.0
62458;BME280;48509;52.122;5.250;2023-02-18T07:17:46;101718.0;;;11.39;100.0
62458;BME280;48509;52.122;5.250;2023-02-18T07:19:22;101728.0;;;11.48;100.0
62458;BME280;48509;52.122;5.250;2023-02-18T07:20:58;101725.0;;;11.55;100.0
62458;BME280;48509;52.122;5.250;2023-02-18T07:24:10;101716.0;;;11.65;100.0
62458;BME280;48509;52.122;5.250;2023-02-18T07:25:47;101719.0;;;11.68;100.0
62458;BME280;48509;52.122;5.250;2023-02-18T07:27:23;101722.0;;;11.51;100.0
62458;BME280;48509;52.122;5.250;2023-02-18T07:30:37;101734.0;;;11.39;100.0
62458;BME280;48509;52.122;5.250;2023-02-18T07:32:15;101731.0;;;11.28;100.0
62458;BME280;48509;52.122;5.250;2023-02-18T07:33:52;101715.0;;;11.36;100.0
62458;BME280;48509;52.122;5.250;2023-02-18T07:35:29;101708.0;;;11.32;100.0
62458;BME280;48509;52.122;5.250;2023-02-18T07:38:45;101719.0;;;11.31;100.0
62458;BME280;48509;52.122;5.250;2023-02-18T07:40:21;101710.0;;;11.36;100.0
62458;BME280;48509;52.122;5.250;2023-02-18T07:41:57;101714.0;;;11.47;100.0
62458;BME280;48509;52.122;5.250;2023-02-18T07:45:10;101708.0;;;11.47;100.0
62458;BME280;48509;52.122;5.250;2023-02-18T07:46:46;101707.0;;;11.52;100.0
62458;BME280;48509;52.122;5.250;2023-02-18T07:48:22;101708.0;;;11.43;100.0
62458;BME280;48509;52.122;5.250;2023-02-18T07:51:34;101714.0;;;11.39;100.0
62458;BME280;48509;52.122;5.250;2023-02-18T07:53:12;101711.0;;;11.43;100.0
62458;BME280;48509;52.122;5.250;2023-02-18T07:54:50;101720.0;;;11.42;100.0
62458;BME280;48509;52.122;5.250;2023-02-18T07:56:26;101697.0;;;11.32;100.0
62458;BME280;48509;52.122;5.250;2023-02-18T07:59:38;101725.0;;;11.41;100.0
62458;BME280;48509;52.122;5.250;2023-02-18T08:01:15;101725.0;;;11.42;100.0
62458;BME280;48509;52.122;5.250;2023-02-18T08:02:52;101722.0;;;11.44;100.0
62458;BME280;48509;52.122;5.250;2023-02-18T08:06:05;101724.0;;;11.47;100.0
62458;BME280;48509;52.122;5.250;2023-02-18T08:07:41;101724.0;;;11.46;100.0
62458;BME280;48509;52.122;5.250;2023-02-18T08:09:17;101721.0;;;11.38;100.0
62458;BME280;48509;52.122;5.250;2023-02-18T08:12:34;101730.0;;;11.41;100.0
62458;BME280;48509;52.122;5.250;2023-02-18T08:14:10;101731.0;;;11.44;100.0
62458;BME280;48509;52.122;5.250;2023-02-18T08:15:47;101739.0;;;11.51;100.0
62458;BME280;48509;52.122;5.250;2023-02-18T08:17:23;101732.0;;;11.24;100.0
62458;BME280;48509;52.122;5.250;2023-02-18T08:20:39;101738.0;;;11.22;100.0
62458;BME280;48509;52.122;5.250;2023-02-18T08:22:15;101738.0;;;11.13;100.0
62458;BME280;48509;52.122;5.250;2023-02-18T08:23:52;101746.0;;;11.16;100.0
62458;BME280;48509;52.122;5.250;2023-02-18T08:27:04;101744.0;;;11.07;100.0
62458;BME280;48509;52.122;5.250;2023-02-18T08:28:41;101747.0;;;10.98;100.0
62458;BME280;48509;52.122;5.250;2023-02-18T08:30:18;101737.0;;;11.14;100.0
62458;BME280;48509;52.122;5.250;2023-02-18T08:31:56;101732.0;;;11.08;100.0
62458;BME280;48509;52.122;5.250;2023-02-18T08:35:09;101739.0;;;11.17;100.0
62458;BME280;48509;52.122;5.250;2023-02-18T08:36:46;101741.0;;;11.05;100.0
62458;BME280;48509;52.122;5.250;2023-02-18T08:38:23;101745.0;;;11.01;100.0
62458;BME280;48509;52.122;5.250;2023-02-18T08:41:36;101751.0;;;11.06;100.0
62458;BME280;48509;52.122;5.250;2023-02-18T08:43:13;101746.0;;;11.05;100.0
62458;BME280;48509;52.122;5.250;2023-02-18T08:44:51;101740.0;;;11.12;100.0
62458;BME280;48509;52.122;5.250;2023-02-18T08:48:03;101735.0;;;11.13;100.0
62458;BME280;48509;52.122;5.250;2023-02-18T08:49:40;101740.0;;;11.04;100.0
62458;BME280;48509;52.122;5.250;2023-02-18T08:51:18;101738.0;;;11.05;100.0
62458;BME280;48509;52.122;5.250;2023-02-18T08:52:59;101736.0;;;11.07;100.0
62458;BME280;48509;52.122;5.250;2023-02-18T08:56:14;101735.0;;;11.07;100.0
62458;BME280;48509;52.122;5.250;2023-02-18T08:57:51;101749.0;;;10.9;100.0
62458;BME280;48509;52.122;5.250;2023-02-18T08:59:27;101755.0;;;10.99;100.0
62458;BME280;48509;52.122;5.250;2023-02-18T09:04:20;101755.0;;;10.87;100.0
62458;BME280;48509;52.122;5.250;2023-02-18T09:05:57;101757.0;;;10.94;100.0
62458;BME280;48509;52.122;5.250;2023-02-18T09:07:35;101761.0;;;10.98;100.0
62458;BME280;48509;52.122;5.250;2023-02-18T09:10:48;101753.0;;;10.89;100.0
62458;BME280;48509;52.122;5.250;2023-02-18T09:12:24;101763.0;;;10.95;100.0
62458;BME280;48509;52.122;5.250;2023-02-18T09:14:02;101763.0;;;10.91;100.0
62458;BME280;48509;52.122;5.250;2023-02-18T09:17:14;101763.0;;;10.94;100.0
62458;BME280;48509;52.122;5.250;2023-02-18T09:18:50;101765.0;;;11.0;100.0
62458;BME280;48509;52.122;5.250;2023-02-18T09:20:27;101769.0;;;10.92;100.0
62458;BME280;48509;52.122;5.250;2023-02-18T09:23:39;101765.0;;;11.02;100.0
62458;BME280;48509;52.122;5.250;2023-02-18T09:25:15;101761.0;;;10.95;100.0
62458;BME280;48509;52.122;5.250;2023-02-18T09:26:51;101759.0;;;10.93;100.0
62458;BME280;48509;52.122;5.250;2023-02-18T09:28:27;101755.0;;;11.05;100.0
62458;BME280;48509;52.122;5.250;2023-02-18T09:31:42;101764.0;;;11.22;100.0
62458;BME280;48509;52.122;5.250;2023-02-18T09:33:19;101763.0;;;11.24;100.0
62458;BME280;48509;52.122;5.250;2023-02-18T09:34:55;101761.0;;;11.32;100.0
62458;BME280;48509;52.122;5.250;2023-02-18T09:38:09;101756.0;;;11.32;100.0
62458;BME280;48509;52.122;5.250;2023-02-18T09:39:47;101770.0;;;11.28;100.0
62458;BME280;48509;52.122;5.250;2023-02-18T09:41:31;101769.0;;;11.33;100.0
62458;BME280;48509;52.122;5.250;2023-02-18T09:43:22;101794.0;;;11.2;100.0
62458;BME280;48509;52.122;5.250;2023-02-18T09:46:50;101778.0;;;11.39;100.0
62458;BME280;48509;52.122;5.250;2023-02-18T09:48:31;101780.0;;;11.4;100.0
62458;BME280;48509;52.122;5.250;2023-02-18T09:50:19;101780.0;;;11.42;100.0
62458;BME280;48509;52.122;5.250;2023-02-18T09:52:03;101770.0;;;11.41;100.0
62458;BME280;48509;52.122;5.250;2023-02-18T09:53:42;101780.0;;;11.35;100.0
62458;BME280;48509;52.122;5.250;2023-02-18T09:57:00;101780.0;;;11.32;100.0
62458;BME280;48509;52.122;5.250;2023-02-18T09:58:38;101780.0;;;11.36;100.0
62458;BME280;48509;52.122;5.250;2023-02-18T10:00:20;101780.0;;;11.56;100.0
62458;BME280;48509;52.122;5.250;2023-02-18T10:01:59;101780.0;;;11.4;100.0
62458;BME280;48509;52.122;5.250;2023-02-18T10:05:14;101780.0;;;11.4;100.0
62458;BME280;48509;52.122;5.250;2023-02-18T10:06:51;101792.0;;;11.39;100.0
62458;BME280;48509;52.122;5.250;2023-02-18T10:08:31;101784.0;;;11.45;100.0
62458;BME280;48509;52.122;5.250;2023-02-18T10:11:57;101787.0;;;11.47;100.0
62458;BME280;48509;52.122;5.250;2023-02-18T10:13:40;101781.0;;;11.6;100.0
62458;BME280;48509;52.122;5.250;2023-02-18T10:15:22;101787.0;;;11.62;100.0
62458;BME280;48509;52.122;5.250;2023-02-18T10:16:58;101795.0;;;11.61;100.0
62458;BME280;48509;52.122;5.250;2023-02-18T10:18:40;101794.0;;;11.67;100.0
62458;BME280;48509;52.122;5.250;2023-02-18T10:22:01;101789.0;;;11.77;100.0
62458;BME280;48509;52.122;5.250;2023-02-18T10:23:42;101796.0;;;11.74;100.0
62458;BME280;48509;52.122;5.250;2023-02-18T10:25:30;101806.0;;;11.79;100.0
62458;BME280;48509;52.122;5.250;2023-02-18T10:27:20;101794.0;;;11.76;100.0
62458;BME280;48509;52.122;5.250;2023-02-18T10:30:39;101821.0;;;11.81;100.0
62458;BME280;48509;52.122;5.250;2023-02-18T10:32:21;101799.0;;;11.81;100.0
62458;BME280;48509;52.122;5.250;2023-02-18T10:34:02;101796.0;;;11.83;100.0
62458;BME280;48509;52.122;5.250;2023-02-18T10:35:48;101802.0;;;11.84;100.0
62458;BME280;48509;52.122;5.250;2023-02-18T10:37:44;101810.0;;;11.8;100.0
62458;BME280;48509;52.122;5.250;2023-02-18T10:41:29;101807.0;;;11.86;100.0
62458;BME280;48509;52.122;5.250;2023-02-18T10:43:16;101807.0;;;11.9;100.0
62458;BME280;48509;52.122;5.250;2023-02-18T10:45:05;101811.0;;;12.04;100.0
62458;BME280;48509;52.122;5.250;2023-02-18T10:46:49;101816.0;;;12.0;100.0
62458;BME280;48509;52.122;5.250;2023-02-18T10:48:49;101805.0;;;11.97;100.0
62458;BME280;48509;52.122;5.250;2023-02-18T10:50:36;101807.0;;;11.94;100.0
62458;BME280;48509;52.122;5.250;2023-02-18T10:52:17;101816.0;;;12.07;100.0
62458;BME280;48509;52.122;5.250;2023-02-18T10:55:35;101814.0;;;12.02;100.0
62458;BME280;48509;52.122;5.250;2023-02-18T10:57:17;101817.0;;;12.1;100.0
62458;BME280;48509;52.122;5.250;2023-02-18T10:59:00;101814.0;;;12.08;100.0
62458;BME280;48509;52.122;5.250;2023-02-18T11:00:40;101806.0;;;12.18;100.0
62458;BME280;48509;52.122;5.250;2023-02-18T11:04:06;101814.0;;;12.22;100.0
62458;BME280;48509;52.122;5.250;2023-02-18T11:05:43;101819.0;;;12.2;100.0
62458;BME280;48509;52.122;5.250;2023-02-18T11:07:23;101811.0;;;12.22;100.0
62458;BME280;48509;52.122;5.250;2023-02-18T11:09:01;101812.0;;;12.27;100.0
62458;BME280;48509;52.122;5.250;2023-02-18T11:12:21;101811.0;;;12.3;100.0